createdAt,value
2023-05-01T00:00:58.298Z,30.51
2023-05-01T00:01:58.330Z,30.38
2023-05-01T00:02:58.435Z,30.44
2023-05-01T00:03:58.748Z,30.42
2023-05-01T00:04:58.437Z,30.47
2023-05-01T00:05:58.498Z,30.46
2023-05-01T00:06:58.474Z,30.51
2023-05-01T00:07:58.521Z,30.45
2023-05-01T00:08:58.521Z,30.37
2023-05-01T00:09:58.893Z,30.40
2023-05-01T00:10:58.645Z,30.50
2023-05-01T00:11:58.673Z,30.43
2023-05-01T00:12:58.724Z,30.40
2023-05-01T00:13:58.750Z,30.53
2023-05-01T00:14:58.778Z,30.47
2023-05-01T00:15:58.893Z,30.40
2023-05-01T00:16:59.017Z,30.48
2023-05-01T00:17:58.975Z,30.39
2023-05-01T00:18:58.915Z,30.60
2023-05-01T00:19:59.251Z,30.48
2023-05-01T00:20:59.031Z,30.44
2023-05-01T00:21:59.049Z,30.34
2023-05-01T00:22:59.084Z,30.44
2023-05-01T00:23:59.115Z,30.42
2023-05-01T00:24:59.158Z,30.41
2023-05-01T00:25:59.225Z,30.48
2023-05-01T00:26:59.238Z,30.36
2023-05-01T00:27:59.269Z,30.40
2023-05-01T00:28:59.348Z,30.40
2023-05-01T00:29:59.348Z,30.42
2023-05-01T00:30:59.418Z,30.44
2023-05-01T00:31:59.475Z,30.41
2023-05-01T00:32:59.507Z,30.31
2023-05-01T00:33:59.521Z,30.59
2023-05-01T00:34:59.564Z,30.40
2023-05-01T00:35:59.561Z,30.45
2023-05-01T00:36:59.606Z,30.42
2023-05-01T00:37:59.644Z,30.38
2023-05-01T00:38:59.680Z,30.42
2023-05-01T00:39:59.892Z,30.50
2023-05-01T00:40:59.745Z,30.45
2023-05-01T00:41:59.794Z,30.39
2023-05-01T00:42:59.836Z,30.40
2023-05-01T00:43:59.853Z,30.38
2023-05-01T00:44:59.908Z,30.33
2023-05-01T00:46:00.031Z,30.30
2023-05-01T00:46:59.993Z,30.48
2023-05-01T00:48:00.051Z,30.40
2023-05-01T00:49:00.129Z,30.44
2023-05-01T00:50:00.191Z,30.52
2023-05-01T00:51:00.192Z,30.41
2023-05-01T00:52:00.226Z,30.40
2023-05-01T00:53:00.226Z,30.48
2023-05-01T00:54:00.316Z,30.46
2023-05-01T00:55:00.311Z,30.38
2023-05-01T00:56:00.352Z,30.36
2023-05-01T00:57:00.379Z,30.37
2023-05-01T00:58:00.441Z,30.33
2023-05-01T00:59:00.447Z,30.28
2023-05-01T01:00:00.521Z,30.30
2023-05-01T01:01:00.555Z,30.31
2023-05-01T01:02:00.595Z,30.31
2023-05-01T01:03:00.674Z,30.27
2023-05-01T01:04:00.768Z,30.25
2023-05-01T01:05:00.786Z,30.26
2023-05-01T01:06:00.859Z,30.25
2023-05-01T01:07:00.869Z,30.25
2023-05-01T01:08:00.876Z,30.22
2023-05-01T01:09:00.912Z,30.22
2023-05-01T01:10:00.960Z,30.20
2023-05-01T01:11:00.971Z,30.18
2023-05-01T01:12:01.030Z,30.18
2023-05-01T01:13:01.083Z,30.15
2023-05-01T01:14:01.107Z,30.13
2023-05-01T01:15:01.133Z,30.12
2023-05-01T01:16:01.166Z,30.12
2023-05-01T01:17:01.249Z,30.08
2023-05-01T01:18:01.330Z,30.06
2023-05-01T01:19:01.253Z,30.06
2023-05-01T01:20:01.258Z,30.03
2023-05-01T01:21:01.350Z,30.04
2023-05-01T01:22:01.348Z,30.02
2023-05-01T01:23:01.360Z,29.99
2023-05-01T01:24:01.406Z,29.96
2023-05-01T01:25:01.437Z,29.95
2023-05-01T01:26:01.452Z,29.94
2023-05-01T01:27:01.473Z,29.91
2023-05-01T01:28:01.500Z,29.90
2023-05-01T01:29:01.523Z,29.88
2023-05-01T01:30:01.585Z,29.86
2023-05-01T01:31:01.692Z,29.87
2023-05-01T01:32:01.570Z,29.83
2023-05-01T01:33:01.770Z,29.81
2023-05-01T01:34:01.669Z,29.82
2023-05-01T01:35:01.701Z,29.79
2023-05-01T01:36:01.678Z,29.77
2023-05-01T01:37:01.731Z,29.78
2023-05-01T01:38:01.728Z,29.77
2023-05-01T01:39:01.792Z,29.77
2023-05-01T01:40:01.858Z,29.73
2023-05-01T01:41:01.857Z,29.75
2023-05-01T01:42:01.846Z,29.74
2023-05-01T01:43:01.883Z,29.73
2023-05-01T01:44:01.934Z,29.70
2023-05-01T01:45:01.969Z,29.71
2023-05-01T01:46:01.996Z,29.69
2023-05-01T01:47:02.001Z,29.69
2023-05-01T01:48:02.087Z,29.69
2023-05-01T01:49:02.049Z,29.66
2023-05-01T01:50:02.114Z,29.64
2023-05-01T01:51:02.131Z,29.60
2023-05-01T01:52:02.197Z,29.61
2023-05-01T01:53:02.252Z,29.61
2023-05-01T01:54:02.309Z,29.60
2023-05-01T01:55:02.315Z,29.59
2023-05-01T01:56:03.854Z,29.56
2023-05-01T01:57:02.407Z,29.55
2023-05-01T01:58:02.451Z,29.54
2023-05-01T01:59:02.493Z,29.51
2023-05-01T02:00:02.541Z,29.51
2023-05-01T02:01:02.573Z,29.50
2023-05-01T02:02:02.684Z,29.51
2023-05-01T02:03:02.700Z,29.50
2023-05-01T02:04:02.696Z,29.49
2023-05-01T02:05:02.713Z,29.49
2023-05-01T02:06:02.788Z,29.46
2023-05-01T02:07:02.775Z,29.48
2023-05-01T02:08:02.809Z,29.46
2023-05-01T02:09:02.825Z,29.46
2023-05-01T02:10:02.885Z,29.42
2023-05-01T02:11:02.946Z,29.41
2023-05-01T02:12:03.045Z,29.41
2023-05-01T02:13:03.186Z,29.41
2023-05-01T02:14:03.193Z,29.41
2023-05-01T02:15:03.268Z,29.41
2023-05-01T02:16:03.395Z,29.40
2023-05-01T02:17:03.306Z,29.37
2023-05-01T02:18:03.390Z,29.38
2023-05-01T02:19:03.426Z,29.37
2023-05-01T02:20:03.465Z,29.38
2023-05-01T02:21:03.525Z,29.38
2023-05-01T02:22:03.537Z,29.40
2023-05-01T02:23:03.603Z,29.36
2023-05-01T02:24:03.653Z,29.35
2023-05-01T02:25:03.705Z,29.33
2023-05-01T02:26:03.758Z,29.32
2023-05-01T02:27:03.734Z,29.32
2023-05-01T02:28:03.792Z,29.30
2023-05-01T02:29:03.800Z,29.26
2023-05-01T02:30:03.839Z,29.26
2023-05-01T02:31:03.846Z,29.27
2023-05-01T02:32:03.870Z,29.27
2023-05-01T02:33:04.001Z,29.28
2023-05-01T02:34:03.944Z,29.27
2023-05-01T02:35:03.954Z,29.30
2023-05-01T02:36:03.963Z,29.30
2023-05-01T02:37:04.034Z,29.29
2023-05-01T02:38:04.001Z,29.28
2023-05-01T02:39:04.062Z,29.30
2023-05-01T02:40:04.138Z,29.31
2023-05-01T02:41:04.317Z,29.29
2023-05-01T02:42:04.199Z,29.31
2023-05-01T02:43:04.220Z,29.31
2023-05-01T02:44:04.282Z,29.29
2023-05-01T02:45:04.301Z,29.28
2023-05-01T02:46:04.382Z,29.25
2023-05-01T02:47:04.393Z,29.26
2023-05-01T02:48:04.407Z,29.23
2023-05-01T02:49:04.401Z,29.24
2023-05-01T02:50:04.446Z,29.24
2023-05-01T02:51:04.484Z,29.24
2023-05-01T02:52:04.508Z,29.25
2023-05-01T02:53:04.537Z,29.23
2023-05-01T02:54:04.588Z,29.24
2023-05-01T02:55:04.598Z,29.22
2023-05-01T02:56:04.578Z,29.25
2023-05-01T02:57:04.649Z,29.23
2023-05-01T02:58:04.688Z,29.23
2023-05-01T02:59:04.715Z,29.23
2023-05-01T03:00:04.771Z,29.23
2023-05-01T03:01:04.819Z,29.24
2023-05-01T03:02:04.843Z,29.25
2023-05-01T03:03:04.915Z,29.22
2023-05-01T03:04:04.936Z,29.25
2023-05-01T03:05:04.958Z,29.25
2023-05-01T03:06:05.059Z,29.26
2023-05-01T03:07:05.078Z,29.24
2023-05-01T03:08:05.118Z,29.26
2023-05-01T03:09:05.126Z,29.25
2023-05-01T03:10:05.213Z,29.24
2023-05-01T03:11:05.177Z,29.22
2023-05-01T03:12:05.180Z,29.24
2023-05-01T03:13:05.226Z,29.22
2023-05-01T03:14:05.300Z,29.25
2023-05-01T03:15:05.307Z,29.23
2023-05-01T03:16:05.378Z,29.23
2023-05-01T03:17:05.405Z,29.25
2023-05-01T03:18:05.575Z,29.27
2023-05-01T03:19:05.501Z,29.26
2023-05-01T03:20:05.524Z,29.26
2023-05-01T03:21:05.594Z,29.27
2023-05-01T03:22:05.564Z,29.26
2023-05-01T03:23:05.609Z,29.28
2023-05-01T03:24:05.655Z,29.26
2023-05-01T03:25:05.670Z,29.26
2023-05-01T03:26:05.734Z,29.22
2023-05-01T03:27:05.748Z,29.24
2023-05-01T03:28:05.804Z,29.23
2023-05-01T03:29:05.911Z,29.25
2023-05-01T03:30:05.854Z,29.27
2023-05-01T03:31:05.882Z,29.25
2023-05-01T03:32:05.942Z,29.25
2023-05-01T03:33:06.004Z,29.26
2023-05-01T03:34:06.050Z,29.23
2023-05-01T03:35:06.198Z,29.24
2023-05-01T03:36:06.156Z,29.25
2023-05-01T03:37:06.233Z,29.25
2023-05-01T03:38:06.279Z,29.26
2023-05-01T03:39:06.314Z,29.26
2023-05-01T03:40:06.347Z,29.27
2023-05-01T03:41:06.385Z,29.26
2023-05-01T03:42:06.406Z,29.25
2023-05-01T03:43:06.425Z,29.26
2023-05-01T03:44:06.515Z,29.25
2023-05-01T03:45:06.534Z,29.24
2023-05-01T03:46:06.672Z,29.25
2023-05-01T03:47:06.589Z,29.26
2023-05-01T03:48:06.644Z,29.27
2023-05-01T03:49:06.631Z,29.29
2023-05-01T03:50:06.676Z,29.27
2023-05-01T03:51:06.666Z,29.26
2023-05-01T03:52:06.708Z,29.29
2023-05-01T03:53:06.742Z,29.30
2023-05-01T03:54:06.765Z,29.31
2023-05-01T03:55:06.783Z,29.29
2023-05-01T03:56:06.788Z,29.29
2023-05-01T03:57:06.855Z,29.27
2023-05-01T03:58:06.899Z,29.31
2023-05-01T03:59:06.908Z,29.28
2023-05-01T04:00:06.962Z,29.30
2023-05-01T04:01:07.022Z,29.27
2023-05-01T04:02:07.174Z,29.30
2023-05-01T04:03:07.218Z,29.30
2023-05-01T04:04:07.265Z,29.30
2023-05-01T04:05:07.238Z,29.29
2023-05-01T04:06:07.343Z,29.27
2023-05-01T04:07:07.364Z,29.32
2023-05-01T04:08:07.362Z,29.27
2023-05-01T04:09:07.450Z,29.27
2023-05-01T04:10:07.478Z,29.28
2023-05-01T04:11:07.540Z,29.27
2023-05-01T04:12:07.566Z,29.27
2023-05-01T04:13:07.637Z,29.28
2023-05-01T04:14:07.697Z,29.28
2023-05-01T04:15:07.728Z,29.27
2023-05-01T04:16:07.863Z,29.29
2023-05-01T04:17:07.854Z,29.29
2023-05-01T04:18:07.933Z,29.30
2023-05-01T04:19:07.942Z,29.30
2023-05-01T04:20:08.027Z,29.28
2023-05-01T04:21:08.091Z,29.27
2023-05-01T04:22:08.119Z,29.27
2023-05-01T04:23:08.139Z,29.27
2023-05-01T04:24:09.008Z,29.29
2023-05-01T04:25:08.281Z,29.29
2023-05-01T04:26:08.347Z,29.27
2023-05-01T04:27:08.360Z,29.29
2023-05-01T04:28:08.445Z,29.30
2023-05-01T04:29:08.478Z,29.29
2023-05-01T04:30:08.531Z,29.30
2023-05-01T04:31:08.579Z,29.30
2023-05-01T04:32:08.670Z,29.30
2023-05-01T04:33:08.745Z,29.27
2023-05-01T04:34:08.754Z,29.29
2023-05-01T04:35:08.795Z,29.28
2023-05-01T04:36:08.881Z,29.25
2023-05-01T04:37:08.952Z,29.29
2023-05-01T04:38:08.989Z,29.30
2023-05-01T04:39:09.014Z,29.27
2023-05-01T04:40:11.284Z,29.28
2023-05-01T04:41:09.271Z,29.31
2023-05-01T04:42:09.316Z,29.31
2023-05-01T04:43:09.329Z,29.29
2023-05-01T04:44:09.410Z,29.30
2023-05-01T04:45:09.440Z,29.32
2023-05-01T04:46:09.513Z,29.30
2023-05-01T04:47:09.554Z,29.31
2023-05-01T04:48:09.610Z,29.30
2023-05-01T04:49:09.658Z,29.32
2023-05-01T04:50:09.687Z,29.32
2023-05-01T04:51:09.727Z,29.30
2023-05-01T04:52:09.763Z,29.32
2023-05-01T04:53:09.852Z,29.31
2023-05-01T04:54:09.907Z,29.34
2023-05-01T04:55:09.923Z,29.33
2023-05-01T04:56:09.984Z,29.33
2023-05-01T04:57:10.030Z,29.32
2023-05-01T04:58:10.035Z,29.34
2023-05-01T04:59:10.078Z,29.33
2023-05-01T05:00:10.139Z,29.32
2023-05-01T05:01:17.615Z,29.32
2023-05-01T05:02:10.211Z,29.32
2023-05-01T05:03:10.277Z,29.33
2023-05-01T05:04:10.304Z,29.32
2023-05-01T05:05:10.236Z,29.33
2023-05-01T05:06:10.265Z,29.34
2023-05-01T05:07:10.291Z,29.33
2023-05-01T05:08:10.279Z,29.34
2023-05-01T05:09:10.270Z,29.34
2023-05-01T05:10:10.269Z,29.36
2023-05-01T05:11:10.273Z,29.35
2023-05-01T05:12:10.315Z,29.34
2023-05-01T05:13:10.285Z,29.35
2023-05-01T05:14:10.295Z,29.34
2023-05-01T05:15:11.063Z,29.34
2023-05-01T05:16:10.343Z,29.37
2023-05-01T05:17:10.312Z,29.36
2023-05-01T05:18:10.354Z,29.33
2023-05-01T05:19:10.331Z,29.34
2023-05-01T05:20:10.340Z,29.33
2023-05-01T05:21:10.437Z,29.34
2023-05-01T05:22:10.353Z,29.34
2023-05-01T05:23:10.387Z,29.33
2023-05-01T05:24:10.385Z,29.34
2023-05-01T05:25:10.414Z,29.31
2023-05-01T05:26:10.498Z,29.34
2023-05-01T05:27:10.512Z,29.33
2023-05-01T05:28:10.558Z,29.34
2023-05-01T05:29:10.549Z,29.33
2023-05-01T05:30:10.673Z,29.32
2023-05-01T05:31:10.698Z,29.31
2023-05-01T05:32:10.696Z,29.34
2023-05-01T05:33:10.769Z,29.31
2023-05-01T05:34:10.764Z,29.32
2023-05-01T05:35:10.824Z,29.34
2023-05-01T05:36:10.884Z,29.33
2023-05-01T05:37:10.982Z,29.32
2023-05-01T05:38:10.915Z,29.33
2023-05-01T05:39:10.983Z,29.31
2023-05-01T05:40:11.094Z,29.33
2023-05-01T05:41:11.137Z,29.34
2023-05-01T05:42:11.161Z,29.34
2023-05-01T05:43:11.222Z,29.35
2023-05-01T05:44:11.305Z,29.36
2023-05-01T05:45:11.325Z,29.36
2023-05-01T05:46:18.687Z,29.35
2023-05-01T05:47:11.376Z,29.37
2023-05-01T05:48:11.498Z,29.35
2023-05-01T05:49:11.403Z,29.36
2023-05-01T05:50:12.080Z,29.36
2023-05-01T05:51:11.425Z,29.36
2023-05-01T05:52:11.436Z,29.37
2023-05-01T05:53:11.447Z,29.37
2023-05-01T05:54:11.444Z,29.38
2023-05-01T05:55:11.459Z,29.40
2023-05-01T05:56:11.487Z,29.37
2023-05-01T05:57:11.487Z,29.39
2023-05-01T05:58:11.482Z,29.34
2023-05-01T05:59:11.509Z,29.37
2023-05-01T06:00:11.551Z,29.37
2023-05-01T06:01:11.518Z,29.37
2023-05-01T06:02:11.555Z,29.37
2023-05-01T06:03:11.647Z,29.39
2023-05-01T06:04:11.522Z,29.37
2023-05-01T06:05:11.567Z,29.37
2023-05-01T06:06:11.646Z,29.37
2023-05-01T06:07:11.549Z,29.37
2023-05-01T06:08:11.559Z,29.36
2023-05-01T06:09:11.561Z,29.35
2023-05-01T06:10:11.576Z,29.34
2023-05-01T06:11:11.566Z,29.35
2023-05-01T06:12:11.585Z,29.35
2023-05-01T06:13:14.259Z,29.35
2023-05-01T06:14:11.641Z,29.33
2023-05-01T06:15:11.616Z,29.33
2023-05-01T06:16:11.659Z,29.34
2023-05-01T06:17:11.719Z,29.33
2023-05-01T06:18:11.719Z,29.33
2023-05-01T06:19:11.660Z,29.33
2023-05-01T06:20:11.677Z,29.35
2023-05-01T06:21:11.695Z,29.35
2023-05-01T06:22:11.689Z,29.36
2023-05-01T06:23:11.662Z,29.34
2023-05-01T06:24:11.682Z,29.36
2023-05-01T06:25:11.722Z,29.33
2023-05-01T06:26:11.749Z,29.35
2023-05-01T06:27:11.727Z,29.34
2023-05-01T06:28:11.708Z,29.31
2023-05-01T06:29:11.722Z,29.32
2023-05-01T06:30:11.765Z,29.31
2023-05-01T06:31:11.787Z,29.32
2023-05-01T06:32:11.803Z,29.31
2023-05-01T06:33:11.878Z,29.31
2023-05-01T06:34:11.796Z,29.29
2023-05-01T06:35:11.810Z,29.30
2023-05-01T06:36:11.851Z,29.31
2023-05-01T06:37:11.811Z,29.29
2023-05-01T06:38:11.829Z,29.27
2023-05-01T06:39:11.858Z,29.28
2023-05-01T06:40:11.830Z,29.26
2023-05-01T06:41:11.865Z,29.29
2023-05-01T06:42:11.849Z,29.28
2023-05-01T06:43:11.867Z,29.29
2023-05-01T06:44:11.880Z,29.28
2023-05-01T06:45:11.938Z,29.29
2023-05-01T06:46:11.937Z,29.28
2023-05-01T06:47:11.977Z,29.29
2023-05-01T06:48:11.990Z,29.30
2023-05-01T06:49:11.940Z,29.30
2023-05-01T06:50:11.926Z,29.26
2023-05-01T06:51:11.968Z,29.27
2023-05-01T06:52:11.939Z,29.26
2023-05-01T06:53:11.940Z,29.28
2023-05-01T06:54:11.937Z,29.26
2023-05-01T06:55:11.954Z,29.25
2023-05-01T06:56:12.163Z,29.25
2023-05-01T06:57:11.950Z,29.25
2023-05-01T06:58:22.798Z,29.27
2023-05-01T06:59:12.944Z,29.27
2023-05-01T07:00:11.943Z,29.25
2023-05-01T07:01:12.013Z,29.24
2023-05-01T07:02:12.010Z,29.25
2023-05-01T07:03:11.977Z,29.24
2023-05-01T07:04:11.946Z,29.24
2023-05-01T07:05:11.956Z,29.25
2023-05-01T07:06:12.045Z,29.25
2023-05-01T07:07:11.994Z,29.22
2023-05-01T07:08:11.978Z,29.22
2023-05-01T07:09:12.010Z,29.25
2023-05-01T07:10:12.004Z,29.24
2023-05-01T07:11:11.982Z,29.24
2023-05-01T07:12:11.950Z,29.22
2023-05-01T07:13:11.970Z,29.22
2023-05-01T07:14:12.019Z,29.22
2023-05-01T07:15:12.080Z,29.24
2023-05-01T07:16:12.125Z,29.24
2023-05-01T07:17:12.240Z,29.23
2023-05-01T07:18:12.176Z,29.24
2023-05-01T07:19:12.180Z,29.24
2023-05-01T07:20:12.237Z,29.24
2023-05-01T07:21:12.268Z,29.22
2023-05-01T07:22:12.273Z,29.23
2023-05-01T07:23:12.381Z,29.24
2023-05-01T07:24:12.459Z,29.25
2023-05-01T07:25:12.410Z,29.24
2023-05-01T07:26:12.421Z,29.24
2023-05-01T07:27:12.481Z,29.23
2023-05-01T07:28:12.534Z,29.24
2023-05-01T07:29:12.637Z,29.23
2023-05-01T07:30:12.677Z,29.23
2023-05-01T07:31:12.703Z,29.22
2023-05-01T07:32:12.789Z,29.22
2023-05-01T07:33:12.853Z,29.24
2023-05-01T07:34:12.858Z,29.24
2023-05-01T07:35:12.894Z,29.22
2023-05-01T07:36:12.920Z,29.22
2023-05-01T07:37:13.004Z,29.21
2023-05-01T07:38:13.002Z,29.21
2023-05-01T07:39:13.024Z,29.22
2023-05-01T07:40:13.090Z,29.22
2023-05-01T07:41:13.139Z,29.22
2023-05-01T07:42:13.151Z,29.21
2023-05-01T07:43:13.251Z,29.21
2023-05-01T07:44:13.263Z,29.21
2023-05-01T07:45:13.320Z,29.20
2023-05-01T07:46:13.465Z,29.21
2023-05-01T07:47:13.423Z,29.20
2023-05-01T07:48:13.539Z,29.20
2023-05-01T07:49:13.505Z,29.20
2023-05-01T07:50:13.553Z,29.21
2023-05-01T07:51:13.569Z,29.21
2023-05-01T07:52:13.618Z,29.20
2023-05-01T07:53:13.640Z,29.20
2023-05-01T07:54:13.656Z,29.17
2023-05-01T07:55:13.667Z,29.20
2023-05-01T07:56:13.693Z,29.19
2023-05-01T07:57:13.762Z,29.20
2023-05-01T07:58:13.839Z,29.20
2023-05-01T07:59:13.881Z,29.21
2023-05-01T08:00:13.882Z,29.19
2023-05-01T08:01:13.926Z,29.20
2023-05-01T08:02:14.024Z,29.20
2023-05-01T08:03:14.234Z,29.19
2023-05-01T08:04:14.136Z,29.20
2023-05-01T08:05:14.089Z,29.21
2023-05-01T08:06:14.166Z,29.19
2023-05-01T08:07:14.182Z,29.17
2023-05-01T08:08:14.197Z,29.19
2023-05-01T08:09:14.250Z,29.19
2023-05-01T08:10:14.293Z,29.18
2023-05-01T08:11:14.337Z,29.16
2023-05-01T08:12:14.399Z,29.20
2023-05-01T08:13:14.387Z,29.19
2023-05-01T08:14:14.382Z,29.17
2023-05-01T08:15:14.368Z,29.17
2023-05-01T08:16:14.442Z,29.17
2023-05-01T08:17:14.455Z,29.18
2023-05-01T08:18:14.519Z,29.14
2023-05-01T08:19:14.481Z,29.15
2023-05-01T08:20:14.528Z,29.13
2023-05-01T08:21:14.512Z,29.12
2023-05-01T08:22:14.515Z,29.14
2023-05-01T08:23:15.157Z,29.13
2023-05-01T08:24:14.643Z,29.16
2023-05-01T08:25:14.652Z,29.14
2023-05-01T08:26:14.686Z,29.14
2023-05-01T08:27:14.773Z,29.14
2023-05-01T08:28:14.831Z,29.13
2023-05-01T08:29:14.851Z,29.16
2023-05-01T08:30:14.875Z,29.14
2023-05-01T08:31:14.917Z,29.12
2023-05-01T08:32:14.940Z,29.12
2023-05-01T08:33:15.021Z,29.10
2023-05-01T08:34:15.050Z,29.12
2023-05-01T08:35:15.064Z,29.11
2023-05-01T08:36:15.110Z,29.11
2023-05-01T08:37:15.179Z,29.10
2023-05-01T08:38:15.232Z,29.10
2023-05-01T08:39:15.269Z,29.11
2023-05-01T08:40:15.319Z,29.10
2023-05-01T08:41:15.354Z,29.09
2023-05-01T08:42:15.413Z,29.11
2023-05-01T08:43:15.382Z,29.10
2023-05-01T08:44:15.466Z,29.10
2023-05-01T08:45:15.471Z,29.09
2023-05-01T08:46:15.655Z,29.09
2023-05-01T08:47:15.560Z,29.08
2023-05-01T08:48:15.608Z,29.10
2023-05-01T08:49:15.760Z,29.10
2023-05-01T08:50:15.718Z,29.10
2023-05-01T08:51:15.764Z,29.09
2023-05-01T08:52:15.797Z,29.10
2023-05-01T08:53:15.834Z,29.09
2023-05-01T08:54:15.892Z,29.08
2023-05-01T08:55:15.959Z,29.09
2023-05-01T08:56:15.959Z,29.06
2023-05-01T08:57:16.013Z,29.06
2023-05-01T08:58:16.011Z,29.05
2023-05-01T08:59:16.083Z,29.04
2023-05-01T09:00:16.159Z,29.05
2023-05-01T09:01:16.183Z,29.05
2023-05-01T09:02:16.185Z,29.03
2023-05-01T09:03:16.398Z,29.04
2023-05-01T09:04:16.351Z,29.04
2023-05-01T09:05:16.488Z,29.03
2023-05-01T09:06:16.490Z,29.04
2023-05-01T09:07:16.431Z,29.05
2023-05-01T09:08:16.476Z,29.04
2023-05-01T09:09:16.494Z,29.01
2023-05-01T09:10:16.563Z,29.03
2023-05-01T09:11:16.623Z,29.03
2023-05-01T09:12:16.631Z,29.00
2023-05-01T09:13:16.690Z,29.01
2023-05-01T09:14:16.735Z,29.01
2023-05-01T09:15:16.724Z,29.01
2023-05-01T09:16:16.838Z,29.00
2023-05-01T09:17:16.868Z,29.02
2023-05-01T09:18:16.997Z,29.01
2023-05-01T09:19:16.917Z,29.00
2023-05-01T09:20:16.966Z,28.99
2023-05-01T09:21:17.036Z,28.99
2023-05-01T09:22:17.052Z,28.99
2023-05-01T09:23:17.117Z,28.98
2023-05-01T09:24:17.168Z,28.98
2023-05-01T09:25:17.208Z,28.98
2023-05-01T09:26:17.280Z,28.99
2023-05-01T09:27:17.289Z,28.97
2023-05-01T09:28:17.336Z,28.98
2023-05-01T09:29:17.365Z,28.98
2023-05-01T09:30:17.487Z,29.00
2023-05-01T09:31:17.480Z,29.00
2023-05-01T09:32:17.649Z,28.98
2023-05-01T09:33:17.619Z,28.99
2023-05-01T09:34:17.647Z,29.00
2023-05-01T09:35:17.661Z,28.99
2023-05-01T09:36:17.772Z,28.99
2023-05-01T09:37:17.815Z,28.99
2023-05-01T09:38:17.815Z,28.98
2023-05-01T09:39:17.884Z,28.97
2023-05-01T09:40:17.926Z,28.98
2023-05-01T09:41:18.002Z,28.99
2023-05-01T09:42:18.005Z,28.96
2023-05-01T09:43:18.061Z,28.96
2023-05-01T09:44:18.067Z,28.95
2023-05-01T09:45:18.132Z,28.96
2023-05-01T09:46:18.282Z,28.96
2023-05-01T09:47:18.240Z,28.95
2023-05-01T09:48:18.304Z,28.95
2023-05-01T09:49:18.360Z,28.94
2023-05-01T09:50:18.408Z,28.94
2023-05-01T09:51:18.450Z,28.95
2023-05-01T09:52:18.488Z,28.96
2023-05-01T09:53:18.527Z,28.98
2023-05-01T09:54:18.597Z,28.97
2023-05-01T09:55:18.626Z,28.97
2023-05-01T09:56:18.691Z,28.98
2023-05-01T09:57:18.701Z,28.98
2023-05-01T09:58:18.782Z,28.98
2023-05-01T09:59:18.776Z,28.98
2023-05-01T10:00:18.903Z,28.97
2023-05-01T10:01:19.021Z,28.99
2023-05-01T10:02:19.023Z,28.99
2023-05-01T10:03:19.038Z,28.97
2023-05-01T10:04:19.023Z,28.97
2023-05-01T10:05:19.129Z,28.96
2023-05-01T10:06:19.145Z,28.97
2023-05-01T10:07:19.269Z,28.98
2023-05-01T10:08:19.215Z,28.99
2023-05-01T10:09:19.256Z,28.97
2023-05-01T10:10:19.300Z,28.96
2023-05-01T10:11:19.339Z,28.98
2023-05-01T10:12:19.397Z,29.00
2023-05-01T10:13:19.403Z,29.01
2023-05-01T10:14:19.445Z,29.02
2023-05-01T10:15:25.605Z,28.99
2023-05-01T10:16:20.542Z,29.02
2023-05-01T10:17:19.615Z,29.01
2023-05-01T10:18:19.488Z,29.00
2023-05-01T10:19:19.439Z,29.01
2023-05-01T10:20:19.440Z,29.02
2023-05-01T10:21:19.458Z,29.02
2023-05-01T10:22:19.442Z,29.02
2023-05-01T10:23:19.483Z,29.02
2023-05-01T10:24:19.429Z,29.05
2023-05-01T10:25:19.435Z,29.04
2023-05-01T10:26:19.518Z,29.02
2023-05-01T10:27:19.555Z,29.05
2023-05-01T10:28:19.553Z,29.03
2023-05-01T10:29:19.569Z,29.05
2023-05-01T10:30:19.685Z,29.04
2023-05-01T10:31:19.720Z,29.05
2023-05-01T10:32:19.756Z,29.04
2023-05-01T10:33:19.843Z,29.05
2023-05-01T10:34:19.812Z,29.06
2023-05-01T10:35:19.869Z,29.07
2023-05-01T10:36:19.947Z,29.09
2023-05-01T10:37:19.927Z,29.07
2023-05-01T10:38:19.999Z,29.06
2023-05-01T10:39:20.005Z,29.06
2023-05-01T10:40:20.086Z,29.05
2023-05-01T10:41:20.124Z,29.06
2023-05-01T10:42:20.165Z,29.05
2023-05-01T10:43:20.231Z,29.07
2023-05-01T10:44:20.293Z,29.04
2023-05-01T10:45:20.323Z,29.05
2023-05-01T10:46:20.416Z,29.08
2023-05-01T10:47:20.489Z,29.05
2023-05-01T10:48:20.450Z,29.06
2023-05-01T10:49:20.463Z,29.06
2023-05-01T10:50:20.545Z,29.04
2023-05-01T10:51:20.683Z,29.07
2023-05-01T10:52:20.649Z,29.05
2023-05-01T10:53:20.692Z,29.06
2023-05-01T10:54:20.705Z,29.07
2023-05-01T10:55:20.757Z,29.04
2023-05-01T10:56:20.817Z,29.07
2023-05-01T10:57:20.868Z,29.05
2023-05-01T10:58:20.939Z,29.05
2023-05-01T10:59:20.957Z,29.07
2023-05-01T11:00:20.966Z,29.05
2023-05-01T11:01:21.081Z,29.06
2023-05-01T11:02:21.368Z,29.03
2023-05-01T11:03:21.149Z,29.04
2023-05-01T11:04:21.172Z,29.05
2023-05-01T11:05:32.166Z,29.06
2023-05-01T11:06:22.291Z,29.06
2023-05-01T11:07:21.348Z,29.03
2023-05-01T11:08:21.194Z,29.05
2023-05-01T11:09:21.201Z,29.02
2023-05-01T11:10:21.202Z,29.03
2023-05-01T11:11:21.179Z,29.01
2023-05-01T11:12:21.193Z,29.02
2023-05-01T11:13:21.278Z,29.02
2023-05-01T11:14:21.208Z,29.03
2023-05-01T11:15:21.189Z,29.03
2023-05-01T11:16:21.194Z,29.03
2023-05-01T11:17:21.231Z,29.05
2023-05-01T11:18:21.270Z,29.03
2023-05-01T11:19:21.296Z,29.05
2023-05-01T11:20:21.352Z,29.06
2023-05-01T11:21:22.214Z,29.07
2023-05-01T11:22:21.408Z,29.06
2023-05-01T11:23:21.422Z,29.07
2023-05-01T11:24:21.482Z,29.06
2023-05-01T11:25:21.491Z,29.07
2023-05-01T11:26:21.522Z,29.05
2023-05-01T11:27:21.560Z,29.07
2023-05-01T11:28:21.590Z,29.08
2023-05-01T11:29:21.669Z,29.05
2023-05-01T11:30:21.702Z,29.10
2023-05-01T11:31:21.741Z,29.08
2023-05-01T11:32:21.868Z,29.08
2023-05-01T11:33:21.846Z,29.07
2023-05-01T11:34:21.843Z,29.06
2023-05-01T11:35:21.853Z,29.06
2023-05-01T11:36:21.945Z,29.06
2023-05-01T11:37:21.992Z,29.05
2023-05-01T11:38:22.063Z,29.08
2023-05-01T11:39:22.108Z,29.08
2023-05-01T11:40:22.188Z,29.08
2023-05-01T11:41:22.187Z,29.08
2023-05-01T11:42:22.355Z,29.09
2023-05-01T11:43:22.283Z,29.09
2023-05-01T11:44:22.342Z,29.09
2023-05-01T11:45:22.393Z,29.08
2023-05-01T11:46:22.442Z,29.09
2023-05-01T11:47:22.514Z,29.09
2023-05-01T11:48:22.530Z,29.08
2023-05-01T11:49:22.624Z,29.10
2023-05-01T11:50:22.670Z,29.09
2023-05-01T11:51:22.752Z,29.10
2023-05-01T11:52:22.733Z,29.11
2023-05-01T11:53:22.814Z,29.10
2023-05-01T11:54:22.849Z,29.10
2023-05-01T11:55:22.840Z,29.11
2023-05-01T11:56:26.383Z,29.08
2023-05-01T11:57:22.954Z,29.10
2023-05-01T11:58:22.944Z,29.11
2023-05-01T11:59:22.946Z,29.13
2023-05-01T12:00:22.964Z,29.14
2023-05-01T12:01:22.950Z,29.13
2023-05-01T12:02:23.048Z,29.12
2023-05-01T12:03:23.208Z,29.10
2023-05-01T12:04:23.088Z,29.13
2023-05-01T12:05:22.944Z,29.13
2023-05-01T12:06:23.031Z,29.13
2023-05-01T12:07:23.010Z,29.14
2023-05-01T12:08:23.044Z,29.13
2023-05-01T12:09:23.033Z,29.13
2023-05-01T12:10:23.042Z,29.13
2023-05-01T12:11:23.061Z,29.14
2023-05-01T12:12:23.096Z,29.14
2023-05-01T12:13:23.045Z,29.14
2023-05-01T12:14:23.040Z,29.14
2023-05-01T12:15:23.047Z,29.14
2023-05-01T12:16:23.070Z,29.15
2023-05-01T12:17:23.142Z,29.16
2023-05-01T12:18:23.167Z,29.15
2023-05-01T12:19:23.963Z,29.17
2023-05-01T12:20:23.232Z,29.16
2023-05-01T12:21:23.259Z,29.18
2023-05-01T12:22:23.317Z,29.16
2023-05-01T12:23:23.332Z,29.17
2023-05-01T12:24:23.373Z,29.17
2023-05-01T12:25:23.408Z,29.16
2023-05-01T12:26:23.460Z,29.16
2023-05-01T12:27:23.482Z,29.15
2023-05-01T12:28:23.519Z,29.14
2023-05-01T12:29:23.552Z,29.15
2023-05-01T12:30:23.608Z,29.15
2023-05-01T12:31:23.717Z,29.15
2023-05-01T12:32:23.756Z,29.17
2023-05-01T12:33:23.758Z,29.15
2023-05-01T12:34:23.799Z,29.15
2023-05-01T12:35:23.847Z,29.16
2023-05-01T12:36:23.904Z,29.14
2023-05-01T12:37:23.930Z,29.13
2023-05-01T12:38:24.011Z,29.14
2023-05-01T12:39:24.040Z,29.12
2023-05-01T12:40:24.097Z,29.12
2023-05-01T12:41:24.136Z,29.13
2023-05-01T12:42:24.205Z,29.12
2023-05-01T12:43:24.219Z,29.12
2023-05-01T12:44:24.279Z,29.14
2023-05-01T12:45:24.337Z,29.11
2023-05-01T12:46:24.412Z,29.14
2023-05-01T12:47:24.444Z,29.14
2023-05-01T12:48:24.451Z,29.13
2023-05-01T12:49:24.599Z,29.10
2023-05-01T12:50:24.546Z,29.10
2023-05-01T12:51:24.563Z,29.11
2023-05-01T12:52:24.632Z,29.10
2023-05-01T12:53:24.666Z,29.08